Time;durP1;ratioP1;P1;durP2;ratioP2;P2;SDS_P1;SDS_P2;PMS_P1;PMS_P2;Temp;Humidity;BMP_temperature;BMP_pressure;BME280_temperature;BME280_humidity;BME280_pressure;Samples;Min_cycle;Max_cycle;Signal;HPM_P1;HPM_P2
2022/10/28 00:00:45;;;;;;;16.25;10.43;;;14.00;99.90;;;;;;5051822;28;20040;-62
2022/10/28 00:03:10;;;;;;;17.35;9.00;;;14.00;99.90;;;;;;5033834;28;20124;-62
2022/10/28 00:05:36;;;;;;;16.90;10.15;;;13.90;99.90;;;;;;5052262;28;20099;-62
2022/10/28 00:08:02;;;;;;;18.95;10.35;;;13.90;99.90;;;;;;5052313;28;20401;-62
2022/10/28 00:10:27;;;;;;;20.67;10.60;;;13.90;99.90;;;;;;5033348;28;20440;-62
2022/10/28 00:12:53;;;;;;;17.55;10.38;;;13.90;99.90;;;;;;5051739;28;20047;-62
2022/10/28 00:15:18;;;;;;;23.63;11.23;;;13.90;99.90;;;;;;5052016;28;20134;-62
2022/10/28 00:17:44;;;;;;;18.85;11.98;;;13.90;99.90;;;;;;5033343;28;20036;-62
2022/10/28 00:20:10;;;;;;;20.77;12.30;;;13.90;99.90;;;;;;5034731;28;20045;-62
2022/10/28 00:22:36;;;;;;;18.70;11.18;;;14.00;99.90;;;;;;5051680;28;20429;-62
2022/10/28 00:25:02;;;;;;;19.48;11.20;;;13.90;99.90;;;;;;5033247;28;20049;-65
2022/10/28 00:27:28;;;;;;;17.75;11.07;;;14.00;99.90;;;;;;5034517;28;20059;-62
2022/10/28 00:29:54;;;;;;;18.35;11.45;;;13.90;99.90;;;;;;5033903;28;20040;-62
2022/10/28 00:32:20;;;;;;;19.75;11.07;;;14.00;99.90;;;;;;5033502;28;20489;-62
2022/10/28 00:34:46;;;;;;;17.10;10.38;;;13.90;99.90;;;;;;5051745;28;20041;-62
2022/10/28 00:37:12;;;;;;;23.15;12.38;;;13.90;99.90;;;;;;5052084;28;20071;-62
2022/10/28 00:39:38;;;;;;;16.55;10.25;;;13.90;99.90;;;;;;5051104;28;20037;-62
2022/10/28 00:42:03;;;;;;;23.98;11.43;;;13.90;99.90;;;;;;5017354;28;20045;-62
2022/10/28 00:44:38;;;;;;;17.55;11.43;;;13.90;99.90;;;;;;5033844;28;20047;-62
2022/10/28 00:47:36;;;;;;;20.95;11.50;;;14.00;99.90;;;;;;5033722;28;20048;-62
2022/10/28 00:50:19;;;;;;;15.27;9.93;;;14.00;99.90;;;;;;5035858;28;20517;-62
2022/10/28 00:52:49;;;;;;;19.90;11.07;;;14.00;99.90;;;;;;5032784;28;20073;-62
2022/10/28 00:55:16;;;;;;;19.13;10.52;;;14.10;99.90;;;;;;5051875;28;20095;-61
2022/10/28 00:57:44;;;;;;;17.13;11.05;;;14.10;99.90;;;;;;5051851;28;20120;-62
2022/10/28 01:00:10;;;;;;;19.52;11.23;;;14.10;99.90;;;;;;5033280;28;20041;-62
2022/10/28 01:02:46;;;;;;;21.35;10.85;;;14.10;99.90;;;;;;5033247;28;20044;-62
2022/10/28 01:05:15;;;;;;;17.90;10.73;;;14.20;99.90;;;;;;5034026;28;20071;-62
2022/10/28 01:07:41;;;;;;;14.52;9.80;;;14.20;99.90;;;;;;5033368;28;20428;-62
2022/10/28 01:10:08;;;;;;;19.13;10.75;;;14.20;99.90;;;;;;5051254;28;20121;-62
2022/10/28 01:12:47;;;;;;;18.40;10.45;;;14.20;99.90;;;;;;5051602;28;20040;-62
2022/10/28 01:15:40;;;;;;;21.95;10.75;;;14.20;99.90;;;;;;5033858;28;20072;-62
2022/10/28 01:18:31;;;;;;;18.33;11.27;;;14.30;99.90;;;;;;5043383;28;20049;-62
2022/10/28 01:21:28;;;;;;;15.68;9.80;;;14.20;99.90;;;;;;5050478;28;20044;-62
2022/10/28 01:24:11;;;;;;;17.45;10.30;;;14.20;99.90;;;;;;5022202;28;20132;-62
2022/10/28 01:27:07;;;;;;;23.10;10.32;;;14.20;99.90;;;;;;5055426;28;20455;-62
2022/10/28 01:29:44;;;;;;;18.13;10.20;;;14.10;99.90;;;;;;5037402;28;20397;-62
2022/10/28 01:32:31;;;;;;;18.60;11.35;;;14.10;99.90;;;;;;5037505;28;20049;-62
2022/10/28 01:35:07;;;;;;;19.83;11.73;;;14.10;99.90;;;;;;5019693;28;20051;-62
2022/10/28 01:37:54;;;;;;;16.88;11.15;;;14.10;99.90;;;;;;5037092;28;20040;-62
2022/10/28 01:40:27;;;;;;;19.13;11.32;;;14.10;99.90;;;;;;5055336;28;20053;-62
2022/10/28 01:43:07;;;;;;;18.52;11.57;;;14.10;99.90;;;;;;5036079;28;20397;-62
2022/10/28 01:46:06;;;;;;;17.20;10.25;;;14.10;99.90;;;;;;5054911;28;20187;-62
2022/10/28 01:48:40;;;;;;;14.98;9.68;;;14.00;99.90;;;;;;5036467;28;20045;-62
2022/10/28 01:51:19;;;;;;;14.68;9.57;;;14.00;99.90;;;;;;5036849;28;20083;-62
2022/10/28 01:53:49;;;;;;;15.38;8.75;;;13.90;99.90;;;;;;5036878;28;20068;-62
2022/10/28 01:56:18;;;;;;;13.00;9.00;;;13.80;99.90;;;;;;5054115;28;20525;-62
2022/10/28 01:58:45;;;;;;;17.88;9.93;;;13.70;99.90;;;;;;5054459;28;20041;-62
2022/10/28 02:01:12;;;;;;;16.02;10.15;;;13.80;99.90;;;;;;5037065;28;20049;-62
2022/10/28 02:03:38;;;;;;;18.73;10.88;;;13.80;99.90;;;;;;5035841;28;20167;-61
2022/10/28 02:06:10;;;;;;;18.58;10.40;;;13.80;99.90;;;;;;5036632;28;20068;-62
2022/10/28 02:08:51;;;;;;;23.98;13.38;;;13.80;99.90;;;;;;5036440;28;20075;-62
2022/10/28 02:11:33;;;;;;;24.95;14.10;;;13.80;99.90;;;;;;5053732;28;20048;-62
2022/10/28 02:14:29;;;;;;;19.25;11.63;;;13.80;99.90;;;;;;5054208;28;20044;-61
2022/10/28 02:17:09;;;;;;;25.58;11.75;;;13.80;99.90;;;;;;5035564;28;20044;-62
2022/10/28 02:20:03;;;;;;;19.45;12.98;;;13.70;99.90;;;;;;5036335;28;20512;-62
2022/10/28 02:23:10;;;;;;;17.88;12.23;;;13.70;99.90;;;;;;5029714;28;20061;-62
2022/10/28 02:26:08;;;;;;;21.10;12.93;;;13.70;99.90;;;;;;5014183;28;20517;-62
2022/10/28 02:28:53;;;;;;;20.00;13.88;;;13.60;99.90;;;;;;5022941;28;20151;-62
2022/10/28 02:31:28;;;;;;;;;;;13.60;99.90;;;;;;5036512;28;20371;-62
2022/10/28 02:33:59;;;;;;;22.75;13.77;;;13.60;99.90;;;;;;5035531;28;19916;-62
2022/10/28 02:36:28;;;;;;;22.42;13.57;;;13.60;99.90;;;;;;5036460;28;20053;-62
2022/10/28 02:38:57;;;;;;;21.08;11.23;;;13.60;99.90;;;;;;5018722;28;20044;-62
2022/10/28 02:41:34;;;;;;;25.48;13.68;;;13.60;99.90;;;;;;5054076;28;20067;-62
2022/10/28 02:44:08;;;;;;;21.80;13.77;;;13.50;99.90;;;;;;5053664;28;20044;-61
2022/10/28 02:46:37;;;;;;;20.92;12.50;;;13.50;99.90;;;;;;5053801;28;20040;-62
2022/10/28 02:49:07;;;;;;;20.63;12.57;;;13.60;99.90;;;;;;5053553;28;20073;-62
2022/10/28 02:51:43;;;;;;;27.80;13.35;;;13.50;99.90;;;;;;5035021;28;20087;-62
2022/10/28 02:54:19;;;;;;;22.65;14.25;;;13.50;99.90;;;;;;5053814;28;20080;-62
2022/10/28 02:57:02;;;;;;;19.02;13.10;;;13.50;99.90;;;;;;5035452;28;20094;-62
2022/10/28 02:59:28;;;;;;;23.33;14.77;;;13.50;99.90;;;;;;5035196;28;20045;-62
2022/10/28 03:01:54;;;;;;;19.75;14.48;;;13.50;99.90;;;;;;5035314;28;20128;-62
2022/10/28 03:04:20;;;;;;;18.63;12.95;;;13.50;99.90;;;;;;5035767;28;20120;-62
2022/10/28 03:06:45;;;;;;;21.30;12.77;;;13.50;99.90;;;;;;5034557;28;20045;-62
2022/10/28 03:09:11;;;;;;;18.90;12.80;;;13.50;99.90;;;;;;5053205;28;20051;-62
2022/10/28 03:11:37;;;;;;;18.50;11.07;;;13.50;99.90;;;;;;5035686;28;20072;-62
2022/10/28 03:14:02;;;;;;;21.77;15.13;;;13.50;99.90;;;;;;5052456;28;20058;-62
2022/10/28 03:16:28;;;;;;;20.10;13.27;;;13.50;99.90;;;;;;5035561;28;20511;-62
2022/10/28 03:18:54;;;;;;;21.90;13.68;;;13.50;99.90;;;;;;5018684;28;20041;-62
2022/10/28 03:21:19;;;;;;;24.00;14.10;;;13.50;99.90;;;;;;5052444;28;20049;-62
2022/10/28 03:23:45;;;;;;;19.95;13.68;;;13.50;99.90;;;;;;5034639;28;20084;-62
2022/10/28 03:26:11;;;;;;;20.23;13.48;;;13.50;99.90;;;;;;5019434;28;20092;-62
2022/10/28 03:28:37;;;;;;;25.40;14.80;;;13.50;99.90;;;;;;5052142;28;20032;-62
2022/10/28 03:31:02;;;;;;;23.30;13.70;;;13.50;99.90;;;;;;5052817;28;20420;-62
2022/10/28 03:33:28;;;;;;;21.15;14.27;;;13.50;99.90;;;;;;5034803;28;20052;-62
2022/10/28 03:35:54;;;;;;;23.75;13.82;;;13.60;99.90;;;;;;5018171;28;20049;-62
2022/10/28 03:38:19;;;;;;;22.00;13.55;;;13.50;99.90;;;;;;5052838;28;20456;-62
2022/10/28 03:40:49;;;;;;;21.48;14.43;;;13.50;99.90;;;;;;5051660;28;20049;-62
2022/10/28 03:43:15;;;;;;;19.42;12.88;;;13.50;99.90;;;;;;5052751;28;20037;-62
2022/10/28 03:45:41;;;;;;;23.20;15.15;;;13.60;99.90;;;;;;5017484;28;20482;-62
2022/10/28 03:48:07;;;;;;;22.40;14.13;;;13.50;99.90;;;;;;5034202;28;20056;-62
2022/10/28 03:50:32;;;;;;;18.83;12.70;;;13.50;99.90;;;;;;5052478;28;20532;-62
2022/10/28 03:52:58;;;;;;;22.55;13.70;;;13.50;99.90;;;;;;5034311;28;20036;-62
2022/10/28 03:55:24;;;;;;;24.15;14.85;;;13.50;99.90;;;;;;5034155;28;20044;-62
2022/10/28 03:57:51;;;;;;;20.63;12.90;;;13.40;99.90;;;;;;5052113;28;20379;-62
2022/10/28 04:00:17;;;;;;;25.20;14.20;;;13.50;99.90;;;;;;5052504;28;20041;-62
2022/10/28 04:02:47;;;;;;;23.50;13.20;;;13.40;99.90;;;;;;5033542;28;20501;-62
2022/10/28 04:05:13;;;;;;;20.77;13.00;;;13.40;99.90;;;;;;5034786;28;20076;-62
2022/10/28 04:07:39;;;;;;;19.42;13.07;;;13.40;99.90;;;;;;5052239;28;20095;-62
2022/10/28 04:10:05;;;;;;;20.85;13.65;;;13.40;99.90;;;;;;5051194;28;20529;-62
2022/10/28 04:12:30;;;;;;;27.67;15.18;;;13.40;99.90;;;;;;5052373;28;20044;-61
2022/10/28 04:14:56;;;;;;;20.88;13.02;;;13.30;99.90;;;;;;5051794;28;20049;-62
2022/10/28 04:17:22;;;;;;;26.02;14.98;;;13.30;99.90;;;;;;5033730;28;20045;-62
2022/10/28 04:19:47;;;;;;;27.75;16.58;;;13.30;99.90;;;;;;5052178;28;20036;-62
2022/10/28 04:22:13;;;;;;;20.50;15.43;;;13.30;99.90;;;;;;5034111;28;20049;-62
2022/10/28 04:24:38;;;;;;;26.98;16.23;;;13.30;99.90;;;;;;5051198;28;20049;-62
2022/10/28 04:27:04;;;;;;;27.40;15.80;;;13.30;99.90;;;;;;5052052;28;20051;-62
2022/10/28 04:29:31;;;;;;;27.55;15.77;;;13.40;99.90;;;;;;5052128;28;20040;-62
2022/10/28 04:31:58;;;;;;;23.15;16.83;;;13.30;99.90;;;;;;5051269;28;20036;-62
2022/10/28 04:34:24;;;;;;;28.90;16.98;;;13.30;99.90;;;;;;5052025;28;20490;-62
2022/10/28 04:36:50;;;;;;;26.13;16.77;;;13.30;99.90;;;;;;5032819;28;20051;-62
2022/10/28 04:39:15;;;;;;;22.48;14.82;;;13.40;99.90;;;;;;5052199;28;20037;-62
2022/10/28 04:41:41;;;;;;;21.30;15.43;;;13.40;99.90;;;;;;5034349;28;20132;-61
2022/10/28 04:44:07;;;;;;;26.65;16.40;;;13.40;99.90;;;;;;5016854;28;20056;-62
2022/10/28 04:46:32;;;;;;;26.85;16.35;;;13.40;99.90;;;;;;5034017;28;20033;-62
2022/10/28 04:48:58;;;;;;;27.27;17.45;;;13.40;99.90;;;;;;5034165;28;20040;-62
2022/10/28 04:51:23;;;;;;;25.70;15.88;;;13.30;99.90;;;;;;5033264;28;20045;-62
2022/10/28 04:53:49;;;;;;;22.40;16.58;;;13.30;99.90;;;;;;5017265;28;20049;-61
2022/10/28 04:56:15;;;;;;;26.85;17.88;;;13.30;99.90;;;;;;5036449;28;20095;-62
2022/10/28 04:58:40;;;;;;;29.30;18.83;;;13.30;99.90;;;;;;5054802;28;20616;-62
2022/10/28 05:01:07;;;;;;;24.13;15.48;;;13.30;99.90;;;;;;5038100;28;20056;-62
2022/10/28 05:03:34;;;;;;;25.90;17.38;;;13.30;99.90;;;;;;5021510;28;20067;-62
2022/10/28 05:05:59;;;;;;;30.02;17.48;;;13.30;99.90;;;;;;5054674;28;20047;-61
2022/10/28 05:08:25;;;;;;;24.75;16.92;;;13.30;99.90;;;;;;5021513;28;20406;-62
2022/10/28 05:10:51;;;;;;;26.33;17.08;;;13.20;99.90;;;;;;5037565;28;20390;-62
2022/10/28 05:13:18;;;;;;;26.15;17.30;;;13.20;99.90;;;;;;5037424;28;20466;-62
2022/10/28 05:15:46;;;;;;;28.77;18.05;;;13.30;99.90;;;;;;5037723;28;20059;-62
2022/10/28 05:18:11;;;;;;;30.45;19.63;;;13.20;99.90;;;;;;5055807;28;20040;-62
2022/10/28 05:20:37;;;;;;;38.30;22.30;;;13.30;99.90;;;;;;5036657;28;20037;-62
2022/10/28 05:23:03;;;;;;;39.58;22.70;;;13.30;99.90;;;;;;5020722;28;20064;-62
2022/10/28 05:25:28;;;;;;;35.38;22.65;;;13.30;99.90;;;;;;5055438;28;20413;-62
2022/10/28 05:27:58;;;;;;;29.83;18.67;;;13.30;99.90;;;;;;5036213;28;20068;-62
2022/10/28 05:30:25;;;;;;;28.15;17.95;;;13.30;99.90;;;;;;5037566;28;20045;-62
2022/10/28 05:32:51;;;;;;;26.52;17.23;;;13.30;99.90;;;;;;5054992;28;20079;-62
2022/10/28 05:35:16;;;;;;;31.02;18.55;;;13.30;99.90;;;;;;5054625;28;20064;-62
2022/10/28 05:37:42;;;;;;;28.23;16.23;;;13.30;99.90;;;;;;5054959;28;20404;-62
2022/10/28 05:40:09;;;;;;;24.98;16.60;;;13.30;99.90;;;;;;5019850;28;20124;-62
2022/10/28 05:42:42;;;;;;;27.85;17.48;;;13.30;99.90;;;;;;5037357;28;20025;-62
2022/10/28 05:45:08;;;;;;;28.27;17.05;;;13.30;99.90;;;;;;5036917;28;20482;-62
2022/10/28 05:47:34;;;;;;;21.30;15.13;;;13.30;99.90;;;;;;5053948;28;20548;-62
2022/10/28 05:49:59;;;;;;;24.50;15.43;;;13.30;99.90;;;;;;5036793;28;20044;-62
2022/10/28 05:52:25;;;;;;;25.30;15.02;;;13.30;99.90;;;;;;5054984;28;20040;-62
2022/10/28 05:54:51;;;;;;;24.58;15.10;;;13.30;99.90;;;;;;5035744;28;20087;-62
2022/10/28 05:57:16;;;;;;;24.05;14.85;;;13.30;99.90;;;;;;5055139;28;20124;-62
2022/10/28 05:59:42;;;;;;;20.50;14.35;;;13.30;99.90;;;;;;5037046;28;20379;-62
2022/10/28 06:02:13;;;;;;;33.72;15.57;;;13.30;99.90;;;;;;5036096;28;20047;-62
2022/10/28 06:04:40;;;;;;;26.48;15.52;;;13.30;99.90;;;;;;5054431;28;20124;-62
2022/10/28 06:07:05;;;;;;;21.42;15.05;;;13.40;99.90;;;;;;5053659;28;20116;-62
2022/10/28 06:09:31;;;;;;;25.30;15.55;;;13.40;99.90;;;;;;5035828;28;20679;-62
2022/10/28 06:11:57;;;;;;;24.95;15.43;;;13.40;99.90;;;;;;5036247;28;20086;-62
2022/10/28 06:14:22;;;;;;;25.67;14.85;;;13.40;99.90;;;;;;5054747;28;20090;-62
2022/10/28 06:16:48;;;;;;;24.42;15.55;;;13.40;99.90;;;;;;5035232;28;20486;-62
2022/10/28 06:19:14;;;;;;;24.17;14.77;;;13.40;99.90;;;;;;5037066;28;20041;-62
2022/10/28 06:21:39;;;;;;;21.42;14.88;;;13.50;99.90;;;;;;5054064;28;20516;-62
2022/10/28 06:24:06;;;;;;;23.20;15.60;;;13.50;99.90;;;;;;5035325;28;20053;-62
2022/10/28 06:26:32;;;;;;;22.20;16.13;;;13.50;99.90;;;;;;5036648;28;20045;-62
2022/10/28 06:28:57;;;;;;;25.63;15.35;;;13.50;99.90;;;;;;5036335;28;20041;-62
2022/10/28 06:31:23;;;;;;;28.13;15.63;;;13.50;99.90;;;;;;5035673;28;20040;-62
2022/10/28 06:33:49;;;;;;;26.13;14.50;;;13.50;99.90;;;;;;5035827;28;20072;-62
2022/10/28 06:36:14;;;;;;;25.80;16.80;;;13.50;99.90;;;;;;5053551;28;20409;-62
2022/10/28 06:38:40;;;;;;;22.65;15.15;;;13.50;99.90;;;;;;5053699;28;20073;-62
2022/10/28 06:41:05;;;;;;;22.25;14.68;;;13.50;99.90;;;;;;5036009;28;20560;-62
2022/10/28 06:43:31;;;;;;;25.75;15.20;;;13.50;99.90;;;;;;5035457;28;20112;-62
2022/10/28 06:46:01;;;;;;;23.42;15.10;;;13.50;99.90;;;;;;5053495;28;20041;-62
2022/10/28 06:48:26;;;;;;;26.17;15.38;;;13.50;99.90;;;;;;5053894;28;20032;-62
2022/10/28 06:50:55;;;;;;;21.77;14.55;;;13.50;99.90;;;;;;5052501;28;20452;-62
2022/10/28 06:53:20;;;;;;;23.00;14.57;;;13.60;99.90;;;;;;5054076;28;20041;-62
2022/10/28 06:55:54;;;;;;;26.63;15.00;;;13.50;99.90;;;;;;5035396;28;20122;-62
2022/10/28 06:58:20;;;;;;;23.98;13.45;;;13.60;99.90;;;;;;5053098;28;20056;-62
2022/10/28 07:00:46;;;;;;;21.73;14.45;;;13.60;99.90;;;;;;5035434;28;20044;-62
2022/10/28 07:03:12;;;;;;;26.27;13.23;;;13.60;99.90;;;;;;5035646;28;20049;-62
2022/10/28 07:05:38;;;;;;;20.88;13.05;;;13.60;99.90;;;;;;5034676;28;20398;-62
2022/10/28 07:08:04;;;;;;;19.00;13.98;;;13.70;99.90;;;;;;5053109;28;20036;-62
2022/10/28 07:10:29;;;;;;;19.38;13.05;;;13.70;99.90;;;;;;5035664;28;20039;-62
2022/10/28 07:12:55;;;;;;;22.83;12.77;;;13.70;99.90;;;;;;5052261;28;20040;-62
2022/10/28 07:15:21;;;;;;;23.77;12.77;;;13.80;99.90;;;;;;5035906;28;20090;-62
2022/10/28 07:17:57;;;;;;;28.40;14.43;;;13.80;99.90;;;;;;5025139;28;20504;-62
2022/10/28 07:20:24;;;;;;;22.75;13.30;;;13.80;99.90;;;;;;5028164;28;20040;-62
2022/10/28 07:23:00;;;;;;;23.73;13.07;;;13.90;99.90;;;;;;5051147;28;20049;-62
2022/10/28 07:25:28;;;;;;;20.20;11.73;;;13.90;99.90;;;;;;5034409;28;20056;-62
2022/10/28 07:27:56;;;;;;;24.35;12.80;;;13.90;99.90;;;;;;5032820;28;20033;-62
2022/10/28 07:30:22;;;;;;;19.80;12.05;;;13.90;99.90;;;;;;5052312;28;20517;-62
2022/10/28 07:32:48;;;;;;;17.83;12.65;;;14.00;99.90;;;;;;5033613;28;20160;-62
2022/10/28 07:35:14;;;;;;;22.13;12.70;;;14.00;99.90;;;;;;5018802;28;20147;-62
2022/10/28 07:37:39;;;;;;;20.77;12.45;;;14.00;99.90;;;;;;5042661;28;20060;-62
2022/10/28 07:40:06;;;;;;;18.42;12.07;;;14.10;99.90;;;;;;5041071;28;20098;-62
2022/10/28 07:42:33;;;;;;;16.58;12.02;;;14.10;99.90;;;;;;5030845;28;20084;-62
2022/10/28 07:44:59;;;;;;;18.83;10.73;;;14.10;99.90;;;;;;5032369;28;20041;-62
2022/10/28 07:47:24;;;;;;;22.40;11.93;;;14.20;99.90;;;;;;5031817;28;20111;-62
2022/10/28 07:49:50;;;;;;;19.08;10.80;;;14.20;99.90;;;;;;5032319;28;20041;-62
2022/10/28 07:52:16;;;;;;;21.95;10.73;;;14.20;99.90;;;;;;5049445;28;20123;-62
2022/10/28 07:54:42;;;;;;;18.95;10.00;;;14.30;99.90;;;;;;5015175;28;20128;-62
2022/10/28 07:57:07;;;;;;;13.95;9.02;;;14.30;99.90;;;;;;5035853;28;20071;-62
2022/10/28 07:59:33;;;;;;;16.67;10.05;;;14.40;99.90;;;;;;5050593;28;20053;-62
2022/10/28 08:01:58;;;;;;;16.38;9.68;;;14.40;99.90;;;;;;5069416;28;20044;-62
2022/10/28 08:04:24;;;;;;;16.73;9.50;;;14.50;99.90;;;;;;5044751;28;20378;-61
2022/10/28 08:06:50;;;;;;;17.77;10.15;;;14.50;99.90;;;;;;5031667;28;20446;-61
2022/10/28 08:09:16;;;;;;;17.65;9.98;;;14.60;99.90;;;;;;5048478;28;20048;-60
2022/10/28 08:11:41;;;;;;;26.83;12.10;;;14.60;99.90;;;;;;5049205;28;20401;-61
2022/10/28 08:14:07;;;;;;;19.23;9.52;;;14.70;99.90;;;;;;5031431;28;20059;-61
2022/10/28 08:16:48;;;;;;;15.35;8.80;;;14.70;99.90;;;;;;5048019;28;20049;-61
2022/10/28 08:19:13;;;;;;;16.63;9.80;;;14.80;99.90;;;;;;5048804;28;20474;-61
2022/10/28 08:21:39;;;;;;;17.13;9.48;;;14.80;99.90;;;;;;5031048;28;20049;-61
2022/10/28 08:24:05;;;;;;;17.13;8.82;;;14.90;99.90;;;;;;5059728;28;20051;-61
2022/10/28 08:26:31;;;;;;;17.15;9.20;;;15.00;99.90;;;;;;5035498;28;20131;-61
2022/10/28 08:28:57;;;;;;;21.95;10.23;;;15.00;99.90;;;;;;5051224;28;20123;-61
2022/10/28 08:31:22;;;;;;;19.77;9.60;;;15.10;99.90;;;;;;5044999;28;20032;-61
2022/10/28 08:33:48;;;;;;;17.38;9.18;;;15.10;99.90;;;;;;5030711;28;20049;-61
2022/10/28 08:36:15;;;;;;;14.93;8.50;;;15.20;99.90;;;;;;5013650;28;20044;-61
2022/10/28 08:38:45;;;;;;;16.98;8.13;;;15.30;99.90;;;;;;5048883;28;20124;-61
2022/10/28 08:41:40;;;;;;;13.60;8.45;;;15.30;99.90;;;;;;5045695;28;20122;-61
2022/10/28 08:44:30;;;;;;;15.75;8.77;;;15.40;99.90;;;;;;5027574;28;20072;-61
2022/10/28 08:47:31;;;;;;;20.90;8.63;;;15.40;99.90;;;;;;5048685;28;20041;-61
2022/10/28 08:50:04;;;;;;;19.33;8.85;;;15.50;99.90;;;;;;4975978;28;20049;-62
2022/10/28 08:53:04;;;;;;;12.80;7.53;;;15.50;99.90;;;;;;5048875;28;20095;-61
2022/10/28 08:55:35;;;;;;;19.73;9.07;;;15.60;99.90;;;;;;5030639;28;20056;-61
2022/10/28 08:58:25;;;;;;;19.27;8.13;;;15.60;99.90;;;;;;5028934;28;20143;-61
2022/10/28 09:00:56;;;;;;;22.52;10.10;;;15.60;99.90;;;;;;5029969;28;20051;-61
2022/10/28 09:03:25;;;;;;;19.15;9.13;;;15.60;99.90;;;;;;5048278;28;20045;-62
2022/10/28 09:06:09;;;;;;;16.75;8.15;;;15.70;99.90;;;;;;5029523;28;20048;-61
2022/10/28 09:08:47;;;;;;;19.63;9.45;;;15.70;99.90;;;;;;5029147;28;20125;-61
2022/10/28 09:11:35;;;;;;;20.05;8.30;;;15.70;99.90;;;;;;5023897;28;20378;-61
2022/10/28 09:14:05;;;;;;;18.17;8.60;;;15.70;99.90;;;;;;5028741;28;20049;-61
2022/10/28 09:16:58;;;;;;;16.13;8.45;;;15.70;99.90;;;;;;5026098;28;20053;-61
2022/10/28 09:19:47;;;;;;;17.80;8.10;;;15.80;99.90;;;;;;5013198;28;20045;-61
2022/10/28 09:22:22;;;;;;;14.43;7.55;;;15.80;99.90;;;;;;5030489;28;20194;-61
2022/10/28 09:25:00;;;;;;;13.07;7.63;;;15.80;99.90;;;;;;5024323;28;20046;-61
2022/10/28 09:27:57;;;;;;;20.35;8.25;;;15.80;99.90;;;;;;5026765;28;20045;-61
2022/10/28 09:30:44;;;;;;;13.57;7.35;;;15.80;99.90;;;;;;5021995;28;20047;-61
2022/10/28 09:33:49;;;;;;;13.88;8.07;;;15.80;99.90;;;;;;5013093;28;20047;-63
2022/10/28 09:36:23;;;;;;;15.52;7.32;;;15.80;99.90;;;;;;5028942;28;20033;-62
2022/10/28 09:38:53;;;;;;;17.77;8.70;;;15.90;99.90;;;;;;5033468;28;20461;-61
2022/10/28 09:41:29;;;;;;;12.60;7.40;;;15.90;99.90;;;;;;5050522;28;20512;-61
2022/10/28 09:44:12;;;;;;;14.00;6.95;;;15.90;99.90;;;;;;5034925;28;20052;-61
2022/10/28 09:46:39;;;;;;;15.25;8.48;;;16.00;99.90;;;;;;5036397;28;20036;-61
2022/10/28 09:49:22;;;;;;;16.00;7.95;;;16.00;99.90;;;;;;5054442;28;20040;-61
2022/10/28 09:52:18;;;;;;;13.35;8.73;;;16.00;99.90;;;;;;5036123;28;20040;-61
2022/10/28 09:54:48;;;;;;;19.60;8.57;;;16.10;99.90;;;;;;5035462;28;20440;-62
2022/10/28 09:57:14;;;;;;;10.90;7.28;;;16.10;99.90;;;;;;5036799;28;20049;-61
2022/10/28 09:59:40;;;;;;;13.90;7.50;;;16.20;99.90;;;;;;5036718;28;20438;-62
2022/10/28 10:02:22;;;;;;;14.40;8.02;;;16.20;99.90;;;;;;5017132;28;20041;-61
2022/10/28 10:04:47;;;;;;;13.60;7.68;;;16.20;99.90;;;;;;5035999;28;20511;-61
2022/10/28 10:07:33;;;;;;;16.30;8.88;;;16.30;99.90;;;;;;5038339;28;20068;-62
2022/10/28 10:10:06;;;;;;;16.58;8.20;;;16.30;99.90;;;;;;5038052;28;20052;-62
2022/10/28 10:12:32;;;;;;;15.45;7.53;;;16.30;99.90;;;;;;5041292;28;20049;-62
2022/10/28 10:14:58;;;;;;;13.50;7.05;;;16.40;99.90;;;;;;5034801;28;20045;-61
2022/10/28 10:17:45;;;;;;;16.02;8.00;;;16.40;99.90;;;;;;5062218;28;20045;-61
2022/10/28 10:20:16;;;;;;;17.23;7.97;;;16.40;99.90;;;;;;5056504;28;20076;-61
2022/10/28 10:22:44;;;;;;;12.63;6.97;;;16.50;99.90;;;;;;5055000;28;20096;-61
2022/10/28 10:25:19;;;;;;;15.68;7.93;;;16.50;99.90;;;;;;5032796;28;20103;-61
2022/10/28 10:27:56;;;;;;;18.23;7.85;;;16.60;99.90;;;;;;5050520;28;20037;-61
2022/10/28 10:30:36;;;;;;;14.23;7.70;;;16.70;99.90;;;;;;5035699;28;20055;-61
2022/10/28 10:33:03;;;;;;;15.70;8.00;;;16.80;99.90;;;;;;5036275;28;20069;-61
2022/10/28 10:35:30;;;;;;;16.67;8.23;;;16.80;99.90;;;;;;5032087;28;20372;-61
2022/10/28 10:38:00;;;;;;;19.17;7.93;;;16.90;99.90;;;;;;5042738;28;20037;-61
2022/10/28 10:40:30;;;;;;;14.35;8.27;;;16.90;99.90;;;;;;5019715;28;20072;-61
2022/10/28 10:43:16;;;;;;;14.77;7.45;;;17.00;99.90;;;;;;5052811;28;20033;-61
2022/10/28 10:46:11;;;;;;;15.60;8.07;;;17.00;99.90;;;;;;5032673;28;20045;-61
2022/10/28 10:48:37;;;;;;;14.50;7.25;;;17.00;99.90;;;;;;5016499;28;20099;-61
2022/10/28 10:51:23;;;;;;;15.10;8.18;;;17.00;99.90;;;;;;5052707;28;20033;-61
2022/10/28 10:53:53;;;;;;;14.27;7.50;;;17.10;99.90;;;;;;5034190;28;20475;-61
2022/10/28 10:56:25;;;;;;;14.50;6.70;;;17.20;99.90;;;;;;5031589;28;20045;-61
2022/10/28 10:58:53;;;;;;;14.15;6.75;;;17.20;99.90;;;;;;5030232;28;20041;-62
2022/10/28 11:01:26;;;;;;;17.05;7.30;;;17.20;99.90;;;;;;5049554;28;20048;-62
2022/10/28 11:03:58;;;;;;;16.20;8.15;;;17.30;99.90;;;;;;5017463;28;20037;-61
2022/10/28 11:06:29;;;;;;;13.40;7.32;;;17.40;99.90;;;;;;5053685;28;20041;-61
2022/10/28 11:09:04;;;;;;;15.18;7.47;;;17.50;99.90;;;;;;5052700;28;20474;-61
2022/10/28 11:11:32;;;;;;;15.32;7.03;;;17.60;99.90;;;;;;5034539;28;20551;-62
2022/10/28 11:14:03;;;;;;;16.63;7.50;;;17.70;99.90;;;;;;5018669;28;20080;-61
2022/10/28 11:16:28;;;;;;;11.23;7.20;;;17.90;99.90;;;;;;5019244;28;20095;-62
2022/10/28 11:18:54;;;;;;;14.48;7.35;;;17.90;99.90;;;;;;5034479;28;20049;-62
2022/10/28 11:21:25;;;;;;;13.18;7.03;;;18.00;99.90;;;;;;5053725;28;20040;-61
2022/10/28 11:24:16;;;;;;;19.42;7.28;;;18.00;99.90;;;;;;5052647;28;20405;-61
2022/10/28 11:27:10;;;;;;;16.70;7.50;;;18.00;99.90;;;;;;5052166;28;20367;-62
2022/10/28 11:29:36;;;;;;;12.90;7.07;;;18.10;99.90;;;;;;5050136;28;20041;-61
2022/10/28 11:32:35;;;;;;;15.77;7.47;;;18.10;99.90;;;;;;5052202;28;20083;-65
2022/10/28 11:35:45;;;;;;;16.02;7.47;;;18.10;99.90;;;;;;5029427;28;20118;-63
2022/10/28 11:38:25;;;;;;;12.20;5.97;;;18.10;99.90;;;;;;5015014;28;20528;-61
2022/10/28 11:41:19;;;;;;;15.32;6.85;;;18.20;99.90;;;;;;5015118;28;20060;-61
2022/10/28 11:43:52;;;;;;;15.30;7.22;;;18.30;99.90;;;;;;5052459;28;20041;-61
2022/10/28 11:46:33;;;;;;;15.48;7.78;;;18.30;99.90;;;;;;5034459;28;20037;-61
2022/10/28 11:49:21;;;;;;;11.73;6.63;;;18.40;99.90;;;;;;5035109;28;20517;-61
2022/10/28 11:52:04;;;;;;;14.60;7.20;;;18.40;99.90;;;;;;5034203;28;20041;-61
2022/10/28 11:54:54;;;;;;;16.40;7.47;;;18.40;99.90;;;;;;5034546;28;20094;-61
2022/10/28 11:57:42;;;;;;;13.98;7.00;;;18.50;99.90;;;;;;5034785;28;20048;-61
2022/10/28 12:00:26;;;;;;;13.93;7.13;;;18.50;99.90;;;;;;5052044;28;20037;-61
2022/10/28 12:03:19;;;;;;;16.75;7.47;;;18.60;99.90;;;;;;5052296;28;20045;-61
2022/10/28 12:05:57;;;;;;;13.15;6.20;;;18.60;99.90;;;;;;5033246;28;20056;-61
2022/10/28 12:08:46;;;;;;;11.23;5.88;;;18.60;99.90;;;;;;5031969;28;20048;-61
2022/10/28 12:11:45;;;;;;;16.48;7.80;;;18.60;99.90;;;;;;4970262;28;20049;-61
2022/10/28 12:14:17;;;;;;;15.40;6.65;;;18.60;99.90;;;;;;5047687;28;20045;-61
2022/10/28 12:16:57;;;;;;;13.27;6.43;;;18.50;99.90;;;;;;5052345;28;20097;-61
2022/10/28 12:19:46;;;;;;;16.33;6.32;;;18.60;99.90;;;;;;5052784;28;20036;-61
2022/10/28 12:22:21;;;;;;;13.70;6.88;;;18.60;99.90;;;;;;5017155;28;20045;-61
2022/10/28 12:24:49;;;;;;;11.52;5.93;;;18.60;99.90;;;;;;5030435;28;20068;-61
2022/10/28 12:27:23;;;;;;;19.83;6.93;;;18.60;99.90;;;;;;5018079;28;20045;-61
2022/10/28 12:29:55;;;;;;;13.73;6.80;;;18.60;99.90;;;;;;5051117;28;20052;-61
2022/10/28 12:32:34;;;;;;;16.02;6.53;;;18.60;99.90;;;;;;5034363;28;20086;-61
2022/10/28 12:35:03;;;;;;;17.63;7.45;;;18.70;99.90;;;;;;5051170;28;20114;-61
2022/10/28 12:37:58;;;;;;;14.88;6.55;;;18.70;99.90;;;;;;5034380;28;20473;-61
2022/10/28 12:40:28;;;;;;;14.18;6.32;;;18.70;99.90;;;;;;5044690;28;20044;-61
2022/10/28 12:43:29;;;;;;;15.15;6.25;;;18.70;99.90;;;;;;5050962;28;20077;-62
2022/10/28 12:45:55;;;;;;;14.30;6.28;;;18.80;99.90;;;;;;5034200;28;20401;-61
2022/10/28 12:48:30;;;;;;;15.15;6.72;;;18.80;99.90;;;;;;5034274;28;20037;-61
2022/10/28 12:51:02;;;;;;;16.17;6.78;;;18.80;99.90;;;;;;5048477;28;20424;-62
2022/10/28 12:53:48;;;;;;;18.33;7.43;;;18.80;99.90;;;;;;5065734;28;20040;-61
2022/10/28 12:56:21;;;;;;;16.85;7.15;;;18.90;99.90;;;;;;5050023;28;20037;-61